sensor_id;sensor_type;location;lat;lon;timestamp;pressure;altitude;pressure_sealevel;temperature;humidity
72570;BME280;60594;50.204;8.844;2022-09-01T00:01:47;100353.47;;;16.84;60.05
72570;BME280;60594;50.204;8.844;2022-09-01T00:04:19;100347.19;;;16.75;60.19
72570;BME280;60594;50.204;8.844;2022-09-01T00:06:47;100354.69;;;16.72;60.35
72570;BME280;60594;50.204;8.844;2022-09-01T00:09:18;100362.41;;;16.67;60.59
72570;BME280;60594;50.204;8.844;2022-09-01T00:11:49;100361.81;;;16.55;60.93
72570;BME280;60594;50.204;8.844;2022-09-01T00:14:24;100356.75;;;16.52;60.75
72570;BME280;60594;50.204;8.844;2022-09-01T00:16:51;100363.66;;;16.37;61.21
72570;BME280;60594;50.204;8.844;2022-09-01T00:19:20;100359.22;;;16.28;61.33
72570;BME280;60594;50.204;8.844;2022-09-01T00:21:46;100355.38;;;16.31;61.28
72570;BME280;60594;50.204;8.844;2022-09-01T00:24:15;100359.53;;;16.25;61.45
72570;BME280;60594;50.204;8.844;2022-09-01T00:26:43;100358.22;;;16.12;62.31
72570;BME280;60594;50.204;8.844;2022-09-01T00:29:09;100370.00;;;16.11;61.98
72570;BME280;60594;50.204;8.844;2022-09-01T00:31:36;100376.13;;;16.03;62.78
72570;BME280;60594;50.204;8.844;2022-09-01T00:34:03;100368.78;;;16.05;62.38
72570;BME280;60594;50.204;8.844;2022-09-01T00:36:30;100369.53;;;15.98;62.92
72570;BME280;60594;50.204;8.844;2022-09-01T00:38:56;100367.53;;;16.00;62.59
72570;BME280;60594;50.204;8.844;2022-09-01T00:41:26;100363.84;;;16.01;62.93
72570;BME280;60594;50.204;8.844;2022-09-01T00:43:56;100360.69;;;16.05;63.09
72570;BME280;60594;50.204;8.844;2022-09-01T00:46:32;100357.88;;;16.07;62.49
72570;BME280;60594;50.204;8.844;2022-09-01T00:51:55;100363.13;;;15.99;62.83
72570;BME280;60594;50.204;8.844;2022-09-01T00:54:28;100361.69;;;15.87;63.25
72570;BME280;60594;50.204;8.844;2022-09-01T00:56:56;100358.47;;;15.83;62.86
72570;BME280;60594;50.204;8.844;2022-09-01T00:59:24;100357.97;;;15.70;63.93
72570;BME280;60594;50.204;8.844;2022-09-01T01:01:51;100354.75;;;15.67;63.83
72570;BME280;60594;50.204;8.844;2022-09-01T01:04:18;100357.97;;;15.70;63.39
72570;BME280;60594;50.204;8.844;2022-09-01T01:06:48;100359.88;;;15.60;64.16
72570;BME280;60594;50.204;8.844;2022-09-01T01:09:18;100351.50;;;15.63;63.85
72570;BME280;60594;50.204;8.844;2022-09-01T01:11:45;100351.50;;;15.63;63.84
72570;BME280;60594;50.204;8.844;2022-09-01T01:14:14;100345.38;;;15.53;64.24
72570;BME280;60594;50.204;8.844;2022-09-01T01:16:44;100340.00;;;15.53;63.82
72570;BME280;60594;50.204;8.844;2022-09-01T01:22:25;100345.31;;;15.36;64.90
72570;BME280;60594;50.204;8.844;2022-09-01T01:25:12;100339.78;;;15.37;64.72
72570;BME280;60594;50.204;8.844;2022-09-01T01:27:38;100335.13;;;15.39;65.01
72570;BME280;60594;50.204;8.844;2022-09-01T01:30:08;100339.50;;;15.40;64.83
72570;BME280;60594;50.204;8.844;2022-09-01T01:32:38;100334.28;;;15.39;64.80
72570;BME280;60594;50.204;8.844;2022-09-01T01:35:10;100335.66;;;15.43;65.04
72570;BME280;60594;50.204;8.844;2022-09-01T01:37:42;100331.16;;;15.43;64.85
72570;BME280;60594;50.204;8.844;2022-09-01T01:40:17;100331.00;;;15.45;65.20
72570;BME280;60594;50.204;8.844;2022-09-01T01:42:47;100333.06;;;15.51;65.00
72570;BME280;60594;50.204;8.844;2022-09-01T01:45:16;100331.38;;;15.50;65.25
72570;BME280;60594;50.204;8.844;2022-09-01T01:47:44;100331.94;;;15.53;65.02
72570;BME280;60594;50.204;8.844;2022-09-01T01:50:13;100326.56;;;15.53;65.22
72570;BME280;60594;50.204;8.844;2022-09-01T01:52:42;100331.16;;;15.61;64.63
72570;BME280;60594;50.204;8.844;2022-09-01T01:55:09;100324.41;;;15.57;65.29
72570;BME280;60594;50.204;8.844;2022-09-01T01:57:40;100324.66;;;15.63;64.57
72570;BME280;60594;50.204;8.844;2022-09-01T02:00:18;100330.03;;;15.63;64.92
72570;BME280;60594;50.204;8.844;2022-09-01T02:02:47;100330.50;;;15.59;64.76
72570;BME280;60594;50.204;8.844;2022-09-01T02:05:23;100325.94;;;15.59;65.23
72570;BME280;60594;50.204;8.844;2022-09-01T02:07:53;100322.50;;;15.67;64.39
72570;BME280;60594;50.204;8.844;2022-09-01T02:10:30;100325.34;;;15.65;64.85
72570;BME280;60594;50.204;8.844;2022-09-01T02:12:59;100318.66;;;15.69;64.58
72570;BME280;60594;50.204;8.844;2022-09-01T02:15:31;100319.53;;;15.70;64.51
72570;BME280;60594;50.204;8.844;2022-09-01T02:18:13;100316.00;;;15.69;64.42
72570;BME280;60594;50.204;8.844;2022-09-01T02:20:42;100316.22;;;15.58;64.30
72570;BME280;60594;50.204;8.844;2022-09-01T02:23:10;100316.72;;;15.44;64.88
72570;BME280;60594;50.204;8.844;2022-09-01T02:25:42;100318.97;;;15.49;64.97
72570;BME280;60594;50.204;8.844;2022-09-01T02:28:12;100318.97;;;15.49;64.93
72570;BME280;60594;50.204;8.844;2022-09-01T02:30:43;100314.75;;;15.46;65.23
72570;BME280;60594;50.204;8.844;2022-09-01T02:33:15;100310.19;;;15.47;64.81
72570;BME280;60594;50.204;8.844;2022-09-01T02:35:55;100309.81;;;15.42;65.29
72570;BME280;60594;50.204;8.844;2022-09-01T02:38:22;100307.28;;;15.40;65.34
72570;BME280;60594;50.204;8.844;2022-09-01T02:40:52;100308.56;;;15.36;65.46
72570;BME280;60594;50.204;8.844;2022-09-01T02:43:19;100306.88;;;15.35;65.95
72570;BME280;60594;50.204;8.844;2022-09-01T02:45:49;100308.91;;;15.24;66.25
72570;BME280;60594;50.204;8.844;2022-09-01T02:48:32;100306.75;;;15.37;65.88
72570;BME280;60594;50.204;8.844;2022-09-01T02:51:04;100306.97;;;15.43;65.25
72570;BME280;60594;50.204;8.844;2022-09-01T02:53:32;100298.09;;;15.33;65.79
72570;BME280;60594;50.204;8.844;2022-09-01T02:56:02;100309.97;;;15.40;65.70
72570;BME280;60594;50.204;8.844;2022-09-01T02:58:31;100305.88;;;15.36;65.78
72570;BME280;60594;50.204;8.844;2022-09-01T03:00:59;100306.78;;;15.18;66.12
72570;BME280;60594;50.204;8.844;2022-09-01T03:03:26;100313.03;;;15.18;66.55
72570;BME280;60594;50.204;8.844;2022-09-01T03:05:53;100301.19;;;15.11;67.10
72570;BME280;60594;50.204;8.844;2022-09-01T03:08:23;100300.75;;;15.16;66.87
72570;BME280;60594;50.204;8.844;2022-09-01T03:10:51;100303.88;;;15.11;67.04
72570;BME280;60594;50.204;8.844;2022-09-01T03:13:21;100301.41;;;15.18;66.32
72570;BME280;60594;50.204;8.844;2022-09-01T03:15:49;100302.09;;;15.02;67.00
72570;BME280;60594;50.204;8.844;2022-09-01T03:18:16;100298.84;;;14.99;67.58
72570;BME280;60594;50.204;8.844;2022-09-01T03:20:45;100300.22;;;15.03;67.29
72570;BME280;60594;50.204;8.844;2022-09-01T03:23:14;100296.31;;;14.97;67.46
72570;BME280;60594;50.204;8.844;2022-09-01T03:25:42;100309.84;;;15.05;67.12
72570;BME280;60594;50.204;8.844;2022-09-01T03:28:10;100300.66;;;15.08;67.01
72570;BME280;60594;50.204;8.844;2022-09-01T03:30:44;100303.72;;;15.13;66.82
72570;BME280;60594;50.204;8.844;2022-09-01T03:33:11;100304.50;;;14.96;67.25
72570;BME280;60594;50.204;8.844;2022-09-01T03:35:37;100302.53;;;14.98;67.76
72570;BME280;60594;50.204;8.844;2022-09-01T03:38:04;100304.91;;;15.01;67.29
72570;BME280;60594;50.204;8.844;2022-09-01T03:40:32;100308.00;;;15.06;67.06
72570;BME280;60594;50.204;8.844;2022-09-01T03:43:01;100301.22;;;15.02;67.31
72570;BME280;60594;50.204;8.844;2022-09-01T03:45:29;100301.63;;;15.07;67.14
72570;BME280;60594;50.204;8.844;2022-09-01T03:47:55;100299.13;;;15.05;67.07
72570;BME280;60594;50.204;8.844;2022-09-01T03:50:23;100291.59;;;15.09;66.62
72570;BME280;60594;50.204;8.844;2022-09-01T03:52:52;100302.91;;;15.03;66.83
72570;BME280;60594;50.204;8.844;2022-09-01T03:55:25;100294.47;;;14.98;67.20
72570;BME280;60594;50.204;8.844;2022-09-01T03:57:54;100293.63;;;14.97;66.59
72570;BME280;60594;50.204;8.844;2022-09-01T04:00:23;100296.06;;;14.91;67.31
72570;BME280;60594;50.204;8.844;2022-09-01T04:02:52;100294.66;;;14.87;67.33
72570;BME280;60594;50.204;8.844;2022-09-01T04:05:25;100293.88;;;14.67;67.89
72570;BME280;60594;50.204;8.844;2022-09-01T04:07:57;100293.50;;;14.62;68.44
72570;BME280;60594;50.204;8.844;2022-09-01T04:10:24;100302.22;;;14.64;68.08
72570;BME280;60594;50.204;8.844;2022-09-01T04:12:51;100300.94;;;14.78;68.21
72570;BME280;60594;50.204;8.844;2022-09-01T04:15:17;100305.38;;;14.60;68.11
72570;BME280;60594;50.204;8.844;2022-09-01T04:17:45;100291.50;;;14.64;68.42
72570;BME280;60594;50.204;8.844;2022-09-01T04:20:39;100296.22;;;14.53;68.64
72570;BME280;60594;50.204;8.844;2022-09-01T04:23:30;100296.09;;;14.45;69.04
72570;BME280;60594;50.204;8.844;2022-09-01T04:26:11;100296.88;;;14.55;68.64
72570;BME280;60594;50.204;8.844;2022-09-01T04:28:43;100310.00;;;14.58;68.37
72570;BME280;60594;50.204;8.844;2022-09-01T04:31:16;100301.41;;;14.64;68.37
72570;BME280;60594;50.204;8.844;2022-09-01T04:33:46;100308.34;;;14.57;68.92
72570;BME280;60594;50.204;8.844;2022-09-01T04:38:50;100304.38;;;14.61;68.57
72570;BME280;60594;50.204;8.844;2022-09-01T04:41:20;100297.50;;;14.49;68.73
72570;BME280;60594;50.204;8.844;2022-09-01T04:43:48;100310.06;;;14.39;69.38
72570;BME280;60594;50.204;8.844;2022-09-01T04:46:17;100306.22;;;14.51;68.83
72570;BME280;60594;50.204;8.844;2022-09-01T04:48:46;100310.19;;;14.47;69.12
72570;BME280;60594;50.204;8.844;2022-09-01T04:51:14;100310.19;;;14.47;69.04
72570;BME280;60594;50.204;8.844;2022-09-01T04:53:54;100304.13;;;14.45;68.99
72570;BME280;60594;50.204;8.844;2022-09-01T04:56:24;100312.03;;;14.46;68.89
72570;BME280;60594;50.204;8.844;2022-09-01T04:59:08;100316.28;;;14.39;69.37
72570;BME280;60594;50.204;8.844;2022-09-01T05:01:37;100317.25;;;14.38;69.36
72570;BME280;60594;50.204;8.844;2022-09-01T05:04:19;100315.28;;;14.40;69.35
72570;BME280;60594;50.204;8.844;2022-09-01T05:06:49;100311.75;;;14.40;69.25
72570;BME280;60594;50.204;8.844;2022-09-01T05:09:18;100311.06;;;14.38;69.39
72570;BME280;60594;50.204;8.844;2022-09-01T05:11:51;100307.16;;;14.23;69.58
72570;BME280;60594;50.204;8.844;2022-09-01T05:14:29;100309.06;;;14.21;69.73
72570;BME280;60594;50.204;8.844;2022-09-01T05:16:57;100318.56;;;14.25;69.74
72570;BME280;60594;50.204;8.844;2022-09-01T05:19:25;100324.91;;;14.24;69.79
72570;BME280;60594;50.204;8.844;2022-09-01T05:21:55;100326.72;;;14.23;69.87
72570;BME280;60594;50.204;8.844;2022-09-01T05:24:23;100323.91;;;14.34;69.18
72570;BME280;60594;50.204;8.844;2022-09-01T05:26:54;100330.25;;;14.33;69.64
72570;BME280;60594;50.204;8.844;2022-09-01T05:29:21;100322.34;;;14.41;68.98
72570;BME280;60594;50.204;8.844;2022-09-01T05:31:48;100324.59;;;14.46;68.86
72570;BME280;60594;50.204;8.844;2022-09-01T05:34:15;100324.63;;;14.36;69.91
72570;BME280;60594;50.204;8.844;2022-09-01T05:36:45;100324.03;;;14.42;69.16
72570;BME280;60594;50.204;8.844;2022-09-01T05:39:16;100323.44;;;14.48;68.29
72570;BME280;60594;50.204;8.844;2022-09-01T05:41:43;100333.03;;;14.51;68.25
72570;BME280;60594;50.204;8.844;2022-09-01T05:44:11;100322.63;;;14.38;68.63
72570;BME280;60594;50.204;8.844;2022-09-01T05:46:40;100330.25;;;14.33;69.24
72570;BME280;60594;50.204;8.844;2022-09-01T05:49:10;100323.91;;;14.34;68.52
72570;BME280;60594;50.204;8.844;2022-09-01T05:51:43;100336.34;;;14.35;68.69
72570;BME280;60594;50.204;8.844;2022-09-01T05:54:11;100326.72;;;14.23;69.03
72570;BME280;60594;50.204;8.844;2022-09-01T05:56:38;100333.94;;;14.32;68.70
72570;BME280;60594;50.204;8.844;2022-09-01T05:59:09;100331.13;;;14.34;68.23
72570;BME280;60594;50.204;8.844;2022-09-01T06:01:36;100334.47;;;14.36;68.85
72570;BME280;60594;50.204;8.844;2022-09-01T06:04:08;100334.75;;;14.42;68.11
72570;BME280;60594;50.204;8.844;2022-09-01T06:06:42;100328.84;;;14.39;68.22
72570;BME280;60594;50.204;8.844;2022-09-01T06:09:13;100329.97;;;14.46;68.08
72570;BME280;60594;50.204;8.844;2022-09-01T06:11:46;100333.03;;;14.51;68.39
72570;BME280;60594;50.204;8.844;2022-09-01T06:14:14;100334.75;;;14.52;67.24
72570;BME280;60594;50.204;8.844;2022-09-01T06:16:43;100337.56;;;14.50;67.76
72570;BME280;60594;50.204;8.844;2022-09-01T06:19:10;100330.34;;;14.51;67.69
72570;BME280;60594;50.204;8.844;2022-09-01T06:21:40;100340.81;;;14.54;67.91
72570;BME280;60594;50.204;8.844;2022-09-01T06:24:07;100339.78;;;14.64;67.27
72570;BME280;60594;50.204;8.844;2022-09-01T06:26:36;100345.56;;;14.69;66.50
72570;BME280;60594;50.204;8.844;2022-09-01T06:29:06;100344.56;;;14.70;67.23
72570;BME280;60594;50.204;8.844;2022-09-01T06:31:36;100347.41;;;14.69;67.14
72570;BME280;60594;50.204;8.844;2022-09-01T06:34:11;100343.25;;;14.84;66.50
72570;BME280;60594;50.204;8.844;2022-09-01T06:36:39;100344.78;;;14.86;66.83
72570;BME280;60594;50.204;8.844;2022-09-01T06:39:07;100345.63;;;14.96;66.15
72570;BME280;60594;50.204;8.844;2022-09-01T06:41:34;100351.66;;;15.08;65.84
72570;BME280;60594;50.204;8.844;2022-09-01T06:44:06;100347.25;;;15.07;66.07
72570;BME280;60594;50.204;8.844;2022-09-01T06:46:34;100345.53;;;15.15;66.00
72570;BME280;60594;50.204;8.844;2022-09-01T06:49:03;100345.81;;;15.22;64.98
72570;BME280;60594;50.204;8.844;2022-09-01T06:51:30;100346.16;;;15.36;64.89
72570;BME280;60594;50.204;8.844;2022-09-01T06:53:57;100345.72;;;15.41;64.91
72570;BME280;60594;50.204;8.844;2022-09-01T06:56:29;100346.97;;;15.46;64.65
72570;BME280;60594;50.204;8.844;2022-09-01T06:58:57;100341.25;;;15.59;64.13
72570;BME280;60594;50.204;8.844;2022-09-01T07:01:24;100346.84;;;15.65;63.44
72570;BME280;60594;50.204;8.844;2022-09-01T07:03:54;100353.31;;;15.72;63.43
72570;BME280;60594;50.204;8.844;2022-09-01T07:06:40;100352.22;;;15.83;63.08
72570;BME280;60594;50.204;8.844;2022-09-01T07:09:33;100357.00;;;15.89;62.95
72570;BME280;60594;50.204;8.844;2022-09-01T07:12:23;100359.22;;;15.93;62.41
72570;BME280;60594;50.204;8.844;2022-09-01T07:14:50;100361.59;;;15.96;62.60
72570;BME280;60594;50.204;8.844;2022-09-01T07:17:17;100360.06;;;15.94;63.30
72570;BME280;60594;50.204;8.844;2022-09-01T07:19:45;100362.00;;;16.01;62.82
72570;BME280;60594;50.204;8.844;2022-09-01T07:22:13;100358.53;;;16.09;62.81
72570;BME280;60594;50.204;8.844;2022-09-01T07:24:43;100362.81;;;16.19;62.66
72570;BME280;60594;50.204;8.844;2022-09-01T07:27:28;100363.91;;;16.26;62.33
72570;BME280;60594;50.204;8.844;2022-09-01T07:29:54;100350.63;;;16.42;61.46
72570;BME280;60594;50.204;8.844;2022-09-01T07:32:22;100360.50;;;16.59;60.68
72570;BME280;60594;50.204;8.844;2022-09-01T07:34:49;100362.56;;;16.65;61.38
72570;BME280;60594;50.204;8.844;2022-09-01T07:37:17;100362.16;;;16.78;60.44
72570;BME280;60594;50.204;8.844;2022-09-01T07:39:48;100359.50;;;16.86;60.21
72570;BME280;60594;50.204;8.844;2022-09-01T07:42:52;100360.38;;;16.87;60.04
72570;BME280;60594;50.204;8.844;2022-09-01T07:45:53;100356.63;;;16.79;60.88
72570;BME280;60594;50.204;8.844;2022-09-01T07:48:23;100357.19;;;16.91;60.18
72570;BME280;60594;50.204;8.844;2022-09-01T07:50:52;100356.13;;;17.10;59.67
72570;BME280;60594;50.204;8.844;2022-09-01T07:53:22;100366.06;;;17.17;59.59
72570;BME280;60594;50.204;8.844;2022-09-01T07:55:51;100363.44;;;17.25;60.19
72570;BME280;60594;50.204;8.844;2022-09-01T07:58:22;100368.94;;;17.41;58.41
72570;BME280;60594;50.204;8.844;2022-09-01T08:00:54;100369.31;;;17.54;58.91
72570;BME280;60594;50.204;8.844;2022-09-01T08:03:23;100368.69;;;17.68;58.79
72570;BME280;60594;50.204;8.844;2022-09-01T08:05:51;100366.69;;;17.78;58.22
72570;BME280;60594;50.204;8.844;2022-09-01T08:08:23;100368.38;;;17.87;57.90
72570;BME280;60594;50.204;8.844;2022-09-01T08:10:49;100371.28;;;17.94;58.40
72570;BME280;60594;50.204;8.844;2022-09-01T08:13:18;100374.31;;;18.07;56.86
72570;BME280;60594;50.204;8.844;2022-09-01T08:15:45;100373.19;;;18.17;57.57
72570;BME280;60594;50.204;8.844;2022-09-01T08:18:11;100374.53;;;18.29;56.75
72570;BME280;60594;50.204;8.844;2022-09-01T08:20:39;100380.81;;;18.46;55.70
72570;BME280;60594;50.204;8.844;2022-09-01T08:23:29;100379.47;;;18.50;56.44
72570;BME280;60594;50.204;8.844;2022-09-01T08:25:56;100382.16;;;18.58;56.44
72570;BME280;60594;50.204;8.844;2022-09-01T08:28:22;100380.63;;;18.63;55.06
72570;BME280;60594;50.204;8.844;2022-09-01T08:30:49;100375.22;;;18.63;55.30
72570;BME280;60594;50.204;8.844;2022-09-01T08:33:16;100388.75;;;18.55;55.15
72570;BME280;60594;50.204;8.844;2022-09-01T08:35:47;100388.56;;;18.65;56.46
72570;BME280;60594;50.204;8.844;2022-09-01T08:38:14;100387.03;;;18.78;54.82
72570;BME280;60594;50.204;8.844;2022-09-01T08:40:50;100377.41;;;18.76;56.38
72570;BME280;60594;50.204;8.844;2022-09-01T08:43:25;100375.19;;;18.95;54.67
72570;BME280;60594;50.204;8.844;2022-09-01T08:46:19;100380.06;;;19.08;55.88
72570;BME280;60594;50.204;8.844;2022-09-01T08:48:52;100379.19;;;19.15;55.16
72570;BME280;60594;50.204;8.844;2022-09-01T08:51:31;100376.16;;;19.26;54.39
72570;BME280;60594;50.204;8.844;2022-09-01T08:56:40;100376.31;;;19.63;53.06
72570;BME280;60594;50.204;8.844;2022-09-01T08:59:08;100367.34;;;19.71;53.04
72570;BME280;60594;50.204;8.844;2022-09-01T09:04:59;100371.56;;;20.49;51.19
72570;BME280;60594;50.204;8.844;2022-09-01T09:07:47;100369.75;;;21.01;49.88
72570;BME280;60594;50.204;8.844;2022-09-01T09:10:31;100370.72;;;20.86;49.52
72570;BME280;60594;50.204;8.844;2022-09-01T09:15:57;100368.50;;;20.89;50.38
72570;BME280;60594;50.204;8.844;2022-09-01T09:21:27;100357.81;;;21.25;49.70
72570;BME280;60594;50.204;8.844;2022-09-01T09:24:04;100351.88;;;21.65;48.91
72570;BME280;60594;50.204;8.844;2022-09-01T09:26:31;100351.47;;;21.82;49.05
72570;BME280;60594;50.204;8.844;2022-09-01T09:28:58;100352.34;;;22.04;47.23
72570;BME280;60594;50.204;8.844;2022-09-01T09:31:31;100350.03;;;22.01;47.49
72570;BME280;60594;50.204;8.844;2022-09-01T09:33:59;100349.91;;;22.09;46.23
72570;BME280;60594;50.204;8.844;2022-09-01T09:36:33;100341.44;;;22.18;46.51
72570;BME280;60594;50.204;8.844;2022-09-01T09:39:13;100338.66;;;22.54;44.74
72570;BME280;60594;50.204;8.844;2022-09-01T09:41:43;100345.75;;;22.76;44.17
72570;BME280;60594;50.204;8.844;2022-09-01T09:44:30;100340.47;;;22.95;44.16
72570;BME280;60594;50.204;8.844;2022-09-01T09:46:58;100331.94;;;23.05;44.14
72570;BME280;60594;50.204;8.844;2022-09-01T09:49:30;100333.31;;;22.94;43.93
72570;BME280;60594;50.204;8.844;2022-09-01T09:52:13;100331.06;;;22.98;44.30
72570;BME280;60594;50.204;8.844;2022-09-01T09:54:58;100328.94;;;23.28;43.13
72570;BME280;60594;50.204;8.844;2022-09-01T09:57:25;100330.19;;;23.66;42.02
72570;BME280;60594;50.204;8.844;2022-09-01T10:04:59;100320.13;;;24.85;38.84
72570;BME280;60594;50.204;8.844;2022-09-01T10:09:58;100317.13;;;25.25;37.48
72570;BME280;60594;50.204;8.844;2022-09-01T10:12:26;100314.28;;;25.58;36.85
72570;BME280;60594;50.204;8.844;2022-09-01T10:15:05;100305.06;;;25.52;37.56
72570;BME280;60594;50.204;8.844;2022-09-01T10:17:43;100309.91;;;25.57;37.72
72570;BME280;60594;50.204;8.844;2022-09-01T10:20:15;100307.50;;;25.10;37.66
72570;BME280;60594;50.204;8.844;2022-09-01T10:22:43;100309.63;;;24.49;39.08
72570;BME280;60594;50.204;8.844;2022-09-01T10:25:17;100300.22;;;24.45;39.26
72570;BME280;60594;50.204;8.844;2022-09-01T10:27:51;100308.59;;;24.37;39.75
72570;BME280;60594;50.204;8.844;2022-09-01T10:30:21;100309.78;;;23.96;40.48
72570;BME280;60594;50.204;8.844;2022-09-01T10:32:56;100300.31;;;23.92;39.78
72570;BME280;60594;50.204;8.844;2022-09-01T10:35:24;100303.28;;;24.03;40.43
72570;BME280;60594;50.204;8.844;2022-09-01T10:37:52;100307.06;;;24.09;39.39
72570;BME280;60594;50.204;8.844;2022-09-01T10:42:55;100298.50;;;24.38;40.34
72570;BME280;60594;50.204;8.844;2022-09-01T10:47:54;100278.63;;;24.63;38.92
72570;BME280;60594;50.204;8.844;2022-09-01T10:50:28;100298.94;;;24.93;38.71
72570;BME280;60594;50.204;8.844;2022-09-01T10:53:02;100294.81;;;25.48;36.99
72570;BME280;60594;50.204;8.844;2022-09-01T10:55:33;100288.88;;;26.02;37.38
72570;BME280;60594;50.204;8.844;2022-09-01T10:58:55;100276.81;;;26.40;36.15
72570;BME280;60594;50.204;8.844;2022-09-01T11:01:11;100280.34;;;26.72;34.04
72570;BME280;60594;50.204;8.844;2022-09-01T11:03:52;100277.81;;;26.70;34.43
72570;BME280;60594;50.204;8.844;2022-09-01T11:14:28;100280.81;;;25.75;35.49
72570;BME280;60594;50.204;8.844;2022-09-01T11:17:20;100268.66;;;25.71;36.44
72570;BME280;60594;50.204;8.844;2022-09-01T11:22:37;100280.38;;;26.41;32.85
72570;BME280;60594;50.204;8.844;2022-09-01T11:28:00;100272.44;;;26.64;31.97
72570;BME280;60594;50.204;8.844;2022-09-01T11:35:45;100274.00;;;26.47;33.11
72570;BME280;60594;50.204;8.844;2022-09-01T11:38:14;100270.41;;;26.77;32.36
72570;BME280;60594;50.204;8.844;2022-09-01T11:40:41;100274.78;;;26.78;32.87
72570;BME280;60594;50.204;8.844;2022-09-01T11:43:15;100261.47;;;26.64;31.97
72570;BME280;60594;50.204;8.844;2022-09-01T11:45:43;100268.28;;;26.79;32.44
72570;BME280;60594;50.204;8.844;2022-09-01T11:48:16;100251.16;;;26.66;31.55
72570;BME280;60594;50.204;8.844;2022-09-01T11:50:42;100256.94;;;26.76;31.77
72570;BME280;60594;50.204;8.844;2022-09-01T11:53:19;100261.44;;;26.88;31.36
72570;BME280;60594;50.204;8.844;2022-09-01T11:55:48;100256.16;;;26.93;31.94
72570;BME280;60594;50.204;8.844;2022-09-01T12:00:56;100251.13;;;26.17;32.43
72570;BME280;60594;50.204;8.844;2022-09-01T12:03:27;100243.75;;;25.86;34.18
72570;BME280;60594;50.204;8.844;2022-09-01T12:05:58;100252.91;;;25.67;34.19
72570;BME280;60594;50.204;8.844;2022-09-01T12:08:30;100256.03;;;25.26;33.81
72570;BME280;60594;50.204;8.844;2022-09-01T12:11:05;100244.13;;;25.08;36.09
72570;BME280;60594;50.204;8.844;2022-09-01T12:13:33;100238.28;;;24.91;35.12
72570;BME280;60594;50.204;8.844;2022-09-01T12:16:06;100237.50;;;24.78;35.93
72570;BME280;60594;50.204;8.844;2022-09-01T12:21:41;100230.13;;;24.85;35.83
72570;BME280;60594;50.204;8.844;2022-09-01T12:26:38;100215.16;;;25.57;34.91
72570;BME280;60594;50.204;8.844;2022-09-01T12:29:05;100206.31;;;26.00;32.03
72570;BME280;60594;50.204;8.844;2022-09-01T12:31:32;100212.38;;;26.26;33.05
72570;BME280;60594;50.204;8.844;2022-09-01T12:33:59;100216.22;;;26.68;33.47
72570;BME280;60594;50.204;8.844;2022-09-01T12:36:32;100201.16;;;26.95;30.70
72570;BME280;60594;50.204;8.844;2022-09-01T12:39:20;100207.59;;;27.25;29.90
72570;BME280;60594;50.204;8.844;2022-09-01T12:42:11;100204.06;;;27.18;29.70
72570;BME280;60594;50.204;8.844;2022-09-01T12:50:01;100191.09;;;27.72;29.26
72570;BME280;60594;50.204;8.844;2022-09-01T12:52:31;100195.69;;;27.90;28.67
72570;BME280;60594;50.204;8.844;2022-09-01T12:57:27;100182.38;;;27.93;30.40
72570;BME280;60594;50.204;8.844;2022-09-01T13:02:40;100182.41;;;28.39;28.66
72570;BME280;60594;50.204;8.844;2022-09-01T13:05:26;100184.56;;;28.37;27.03
72570;BME280;60594;50.204;8.844;2022-09-01T13:07:56;100180.06;;;28.43;28.17
72570;BME280;60594;50.204;8.844;2022-09-01T13:10:25;100183.94;;;28.24;28.54
72570;BME280;60594;50.204;8.844;2022-09-01T13:12:54;100175.25;;;28.15;28.42
72570;BME280;60594;50.204;8.844;2022-09-01T13:15:22;100184.78;;;28.01;27.53
72570;BME280;60594;50.204;8.844;2022-09-01T13:17:48;100188.56;;;27.30;28.56
72570;BME280;60594;50.204;8.844;2022-09-01T13:20:15;100160.59;;;26.92;28.15
72570;BME280;60594;50.204;8.844;2022-09-01T13:22:42;100181.41;;;26.32;28.83
72570;BME280;60594;50.204;8.844;2022-09-01T13:25:11;100176.56;;;26.10;30.62
72570;BME280;60594;50.204;8.844;2022-09-01T13:27:39;100185.25;;;26.07;30.88
72570;BME280;60594;50.204;8.844;2022-09-01T13:30:19;100174.00;;;25.90;30.96
72570;BME280;60594;50.204;8.844;2022-09-01T13:32:47;100182.44;;;25.82;31.29
72570;BME280;60594;50.204;8.844;2022-09-01T13:35:18;100167.69;;;25.89;30.89
72570;BME280;60594;50.204;8.844;2022-09-01T13:37:49;100170.03;;;25.55;30.74
72570;BME280;60594;50.204;8.844;2022-09-01T13:40:16;100170.06;;;25.48;32.07
72570;BME280;60594;50.204;8.844;2022-09-01T13:42:44;100172.53;;;25.56;31.66
72570;BME280;60594;50.204;8.844;2022-09-01T13:45:12;100176.00;;;25.70;32.10
72570;BME280;60594;50.204;8.844;2022-09-01T13:47:40;100170.81;;;25.62;30.21
72570;BME280;60594;50.204;8.844;2022-09-01T13:50:07;100171.84;;;25.30;30.21
72570;BME280;60594;50.204;8.844;2022-09-01T13:52:46;100172.94;;;25.16;30.59
72570;BME280;60594;50.204;8.844;2022-09-01T13:55:16;100172.69;;;25.30;32.50
72570;BME280;60594;50.204;8.844;2022-09-01T13:57:43;100155.69;;;25.35;31.51
72570;BME280;60594;50.204;8.844;2022-09-01T14:00:12;100167.03;;;25.25;31.64
72570;BME280;60594;50.204;8.844;2022-09-01T14:02:48;100156.50;;;25.35;32.87
72570;BME280;60594;50.204;8.844;2022-09-01T14:05:18;100153.28;;;25.45;31.70
72570;BME280;60594;50.204;8.844;2022-09-01T14:07:45;100156.69;;;25.40;30.83
72570;BME280;60594;50.204;8.844;2022-09-01T14:10:11;100155.00;;;25.39;31.04
72570;BME280;60594;50.204;8.844;2022-09-01T14:12:40;100155.34;;;25.12;30.36
72570;BME280;60594;50.204;8.844;2022-09-01T14:15:08;100149.00;;;25.31;32.19
72570;BME280;60594;50.204;8.844;2022-09-01T14:17:35;100144.69;;;25.04;30.02
72570;BME280;60594;50.204;8.844;2022-09-01T14:20:09;100152.84;;;25.04;30.61
72570;BME280;60594;50.204;8.844;2022-09-01T14:22:36;100152.47;;;24.94;30.81